Jacutinga, Brazil
Current Conditions -  °F | °C
As of 4:00 PM on Thursday 30 Oct 2014 (Local Time) from SBYS Reporting Station
Few Clouds Few Clouds  
Wind Chill: 93°   Ceiling: Unl
Heat Index: 93°   Visibility: 6mi
Dew Point: 48°   Wind: 9mph
Humidity: 21%   Direction: 250°WSW
Pressure: 29.77"   Gusts: NA
Location:  22.29°S, 46.61°W
Report Text: SBYS 301800Z 25008KT 9999 FEW045 34/09 Q1008
Loading
Personal Weather Stations






























Interactive Weather Map
Tropical Storm Tracking
New forecast layout! Learn more

10-Day Weather Forecast

Advertisements
Track Severe Weather on mobile